Time;durP1;ratioP1;P1;durP2;ratioP2;P2;SDS_P1;SDS_P2;PMS_P1;PMS_P2;Temp;Humidity;BMP_temperature;BMP_pressure;BME280_temperature;BME280_humidity;BME280_pressure;Samples;Min_cycle;Max_cycle;Signal;HPM_P1;HPM_P2
2024/02/25 00:01:40;;;;;;;2.70;1.40;;;;;;;5.37;100.00;99999.44;5089878;28;20494;-39
2024/02/25 00:04:06;;;;;;;2.27;1.23;;;;;;;5.39;100.00;99991.97;5089767;28;20028;-39
2024/02/25 00:06:31;;;;;;;0.93;0.80;;;;;;;5.40;100.00;100000.84;5081666;28;20025;-40
2024/02/25 00:08:56;;;;;;;1.27;0.73;;;;;;;5.42;100.00;99991.56;5076258;28;20071;-39
2024/02/25 00:11:22;;;;;;;2.03;0.90;;;;;;;5.46;100.00;99996.47;5076104;28;20039;-40
2024/02/25 00:13:47;;;;;;;3.67;1.97;;;;;;;5.47;100.00;99988.22;5076374;28;20031;-40
2024/02/25 00:16:13;;;;;;;2.10;1.10;;;;;;;5.47;100.00;99990.91;5075789;28;20020;-40
2024/02/25 00:18:38;;;;;;;3.20;0.90;;;;;;;5.50;100.00;100003.84;5076039;28;20029;-40
2024/02/25 00:21:04;;;;;;;1.63;0.97;;;;;;;5.52;100.00;99987.56;5076257;28;20263;-40
2024/02/25 00:23:29;;;;;;;2.13;1.10;;;;;;;5.46;100.00;99975.81;5076045;28;20039;-40
2024/02/25 00:25:55;;;;;;;2.93;1.70;;;;;;;5.52;100.00;99988.38;5108541;28;20063;-40
2024/02/25 00:28:20;;;;;;;2.27;1.17;;;;;;;5.51;100.00;100002.00;5075917;28;20099;-40
2024/02/25 00:30:45;;;;;;;1.60;0.70;;;;;;;5.48;100.00;99997.91;5075537;28;20028;-40
2024/02/25 00:33:10;;;;;;;3.80;1.20;;;;;;;5.46;100.00;99996.47;5075826;28;20029;-39
2024/02/25 00:35:36;;;;;;;1.67;0.80;;;;;;;5.46;100.00;99997.28;5075369;28;20028;-39
2024/02/25 00:38:01;;;;;;;1.65;0.60;;;;;;;5.46;100.00;100001.81;5076049;28;20028;-39
2024/02/25 00:40:27;;;;;;;1.77;0.70;;;;;;;5.41;100.00;100000.63;5076012;28;20028;-39
2024/02/25 00:42:53;;;;;;;2.47;0.80;;;;;;;5.39;100.00;100002.69;5075904;28;20060;-39
2024/02/25 00:45:19;;;;;;;1.33;0.60;;;;;;;5.40;100.00;100007.03;5076094;28;20051;-39
2024/02/25 00:47:44;;;;;;;1.65;0.70;;;;;;;5.36;100.00;100003.13;5076283;28;20461;-39
2024/02/25 00:50:09;;;;;;;0.83;0.60;;;;;;;5.36;100.00;99997.75;5075757;28;20059;-40
2024/02/25 00:52:35;;;;;;;2.77;1.43;;;;;;;5.35;100.00;100008.72;5075098;28;20054;-40
2024/02/25 00:55:01;;;;;;;1.70;0.70;;;;;;;5.35;100.00;100006.84;5075403;28;20106;-40
2024/02/25 00:57:26;;;;;;;1.48;0.77;;;;;;;5.32;100.00;100007.31;5075607;28;20044;-40
2024/02/25 00:59:52;;;;;;;1.67;0.80;;;;;;;5.31;100.00;100005.63;5075300;28;20469;-40
2024/02/25 01:02:17;;;;;;;1.00;0.70;;;;;;;5.32;100.00;100001.94;5074890;28;20036;-39
2024/02/25 01:04:42;;;;;;;1.77;0.90;;;;;;;5.35;100.00;100009.53;5075507;28;20051;-39
2024/02/25 01:07:08;;;;;;;2.43;0.70;;;;;;;5.32;100.00;100012.66;5075104;28;20028;-39
2024/02/25 01:09:33;;;;;;;2.37;0.70;;;;;;;5.33;100.00;100010.81;5074807;28;20614;-39
2024/02/25 01:11:58;;;;;;;1.00;0.60;;;;;;;5.34;100.00;100007.06;5107350;28;20036;-39
2024/02/25 01:14:24;;;;;;;0.60;0.50;;;;;;;5.35;100.00;100006.03;5075194;28;20115;-39
2024/02/25 01:16:50;;;;;;;1.08;0.63;;;;;;;5.34;100.00;100005.22;5075373;28;20392;-39
2024/02/25 01:19:17;;;;;;;;;;;;;;;5.40;100.00;100000.84;5074414;28;20412;-40
2024/02/25 01:21:46;;;;;;;0.70;0.50;;;;;;;5.34;100.00;100004.41;5074568;28;20351;-39
2024/02/25 01:24:11;;;;;;;1.95;0.52;;;;;;;5.35;100.00;100012.22;5075594;28;20032;-39
2024/02/25 01:26:41;;;;;;;1.37;0.60;;;;;;;5.35;100.00;100006.84;5074461;28;20465;-39
2024/02/25 01:29:09;;;;;;;2.38;0.80;;;;;;;5.36;100.00;100011.16;5074983;28;20288;-39
2024/02/25 01:31:45;;;;;;;0.98;0.55;;;;;;;5.34;100.00;99999.84;5074619;28;20029;-39
2024/02/25 01:34:11;;;;;;;1.13;0.57;;;;;;;5.36;100.00;100007.66;5075293;28;20371;-39
2024/02/25 01:36:39;;;;;;;1.17;0.70;;;;;;;5.38;100.00;100006.44;5074211;28;20024;-39
2024/02/25 01:39:05;;;;;;;2.25;0.70;;;;;;;5.33;100.00;99998.22;5074765;28;20032;-39
2024/02/25 01:41:30;;;;;;;1.63;0.90;;;;;;;5.34;100.00;99996.34;5075184;28;20443;-39
2024/02/25 01:43:55;;;;;;;1.07;0.60;;;;;;;5.37;100.00;99990.56;5074666;28;20738;-39
2024/02/25 01:46:21;;;;;;;2.00;0.50;;;;;;;5.36;100.00;99997.75;5074349;28;20063;-39
2024/02/25 01:48:50;;;;;;;0.70;0.60;;;;;;;5.35;100.00;99992.63;5074304;28;20357;-39
2024/02/25 01:51:17;;;;;;;1.27;0.80;;;;;;;5.31;100.00;99991.41;5073897;28;20025;-39
2024/02/25 01:53:45;;;;;;;2.42;0.60;;;;;;;5.35;100.00;99987.28;5074176;28;20032;-39
2024/02/25 01:56:11;;;;;;;1.73;0.70;;;;;;;5.34;100.00;99982.94;5074421;28;20083;-39
2024/02/25 01:58:36;;;;;;;;;;;;;;;5.40;100.00;99987.44;5074247;28;20367;-39
2024/02/25 02:01:02;;;;;;;0.88;0.50;;;;;;;5.35;100.00;99985.41;5073698;28;19934;-39
2024/02/25 02:03:28;;;;;;;1.27;0.80;;;;;;;5.32;100.00;99977.81;5074599;28;20028;-40
2024/02/25 02:05:53;;;;;;;1.23;0.83;;;;;;;5.33;100.00;99975.94;5074234;28;20472;-40
2024/02/25 02:08:18;;;;;;;1.00;0.60;;;;;;;5.36;100.00;99978.19;5073979;28;20032;-40
2024/02/25 02:10:44;;;;;;;1.00;0.60;;;;;;;5.33;100.00;99974.09;5073948;28;20036;-40
2024/02/25 02:13:09;;;;;;;1.13;0.80;;;;;;;5.34;100.00;99972.22;5073908;28;20028;-40
2024/02/25 02:15:35;;;;;;;1.23;0.80;;;;;;;5.35;100.00;99976.53;5073461;28;20293;-40
2024/02/25 02:18:01;;;;;;;2.10;1.65;;;;;;;5.32;100.00;99975.13;5074374;28;20078;-39
2024/02/25 02:20:28;;;;;;;0.98;0.70;;;;;;;5.32;100.00;99963.56;5073518;28;20366;-39
2024/02/25 02:22:54;;;;;;;1.92;0.70;;;;;;;5.31;100.00;99968.09;5073911;28;20491;-39
2024/02/25 02:25:20;;;;;;;1.80;1.08;;;;;;;5.24;100.00;99961.97;5074015;28;20075;-39
2024/02/25 02:27:45;;;;;;;1.50;0.80;;;;;;;5.24;100.00;99961.97;5074175;28;20044;-40
2024/02/25 02:30:12;;;;;;;1.73;0.70;;;;;;;5.27;100.00;99963.41;5073720;28;20100;-40
2024/02/25 02:32:37;;;;;;;2.17;1.00;;;;;;;5.29;100.00;99972.06;5073597;28;20036;-40
2024/02/25 02:35:04;;;;;;;2.85;1.02;;;;;;;5.27;100.00;99971.44;5073790;28;20521;-40
2024/02/25 02:37:30;;;;;;;1.35;0.82;;;;;;;5.26;100.00;99973.28;5073495;28;20037;-40
2024/02/25 02:39:55;;;;;;;;;;;;;;;5.33;100.00;99971.41;5074554;28;20098;-40
2024/02/25 02:42:21;;;;;;;1.63;0.80;;;;;;;5.24;100.00;99970.03;5073285;28;19909;-40
2024/02/25 02:44:48;;;;;;;1.13;0.80;;;;;;;5.26;100.00;99975.97;5074091;28;20032;-40
2024/02/25 02:47:14;;;;;;;1.13;0.95;;;;;;;5.25;100.00;99968.97;5073429;28;20029;-40
2024/02/25 02:49:40;;;;;;;1.05;0.70;;;;;;;5.20;100.00;99958.09;5074240;28;20116;-40
2024/02/25 02:52:05;;;;;;;1.33;0.98;;;;;;;5.14;100.00;99961.66;5073104;28;20112;-40
2024/02/25 02:54:31;;;;;;;1.10;0.80;;;;;;;5.21;100.00;99970.44;5074004;28;20052;-40
2024/02/25 02:56:56;;;;;;;1.27;0.82;;;;;;;5.22;100.00;99961.41;5073666;28;20040;-40
2024/02/25 02:59:21;;;;;;;1.23;0.70;;;;;;;5.23;100.00;99964.91;5073365;28;20054;-40
2024/02/25 03:01:51;;;;;;;1.60;0.80;;;;;;;5.20;100.00;99971.50;5073885;28;20025;-40
2024/02/25 03:04:17;;;;;;;1.20;0.80;;;;;;;5.21;100.00;99981.16;5073606;28;20024;-40
2024/02/25 03:06:42;;;;;;;;;;;;;;;5.31;100.00;99970.78;5073356;28;20035;-40
2024/02/25 03:09:08;;;;;;;2.15;0.80;;;;;;;5.24;100.00;99972.72;5073214;28;19913;-39
2024/02/25 03:11:33;;;;;;;0.85;0.68;;;;;;;5.23;100.00;99970.25;5071903;28;20082;-39
2024/02/25 03:14:00;;;;;;;1.97;0.70;;;;;;;5.17;100.00;99969.25;5073175;28;20115;-39
2024/02/25 03:16:25;;;;;;;1.15;0.70;;;;;;;5.19;100.00;99969.84;5074006;28;20079;-39
2024/02/25 03:18:50;;;;;;;1.03;0.70;;;;;;;5.18;100.00;99970.91;5073182;28;20044;-39
2024/02/25 03:21:16;;;;;;;1.20;0.63;;;;;;;5.09;100.00;99950.75;5072936;28;20868;-39
2024/02/25 03:23:41;;;;;;;0.57;0.57;;;;;;;5.10;100.00;99965.78;5073998;28;20025;-40
2024/02/25 03:26:16;;;;;;;1.33;0.80;;;;;;;5.11;100.00;99965.56;5073154;28;20518;-40
2024/02/25 03:28:42;;;;;;;0.93;0.70;;;;;;;5.09;100.00;99972.19;5073373;28;20039;-40
2024/02/25 03:31:08;;;;;;;1.10;0.80;;;;;;;5.06;100.00;99967.25;5073004;28;20028;-40
2024/02/25 03:33:33;;;;;;;;;;;;;;;5.11;100.00;99975.47;5074001;28;20024;-40
2024/02/25 03:35:59;;;;;;;1.73;0.70;;;;;;;5.06;100.00;99977.97;5072595;28;20046;-40
2024/02/25 03:38:24;;;;;;;1.07;0.70;;;;;;;5.07;100.00;99971.56;5073563;28;20029;-40
2024/02/25 03:40:49;;;;;;;0.83;0.63;;;;;;;5.03;100.00;99970.38;5073574;28;20027;-40
2024/02/25 03:43:17;;;;;;;0.60;0.60;;;;;;;5.00;100.00;99970.81;5077863;28;20086;-40
2024/02/25 03:45:42;;;;;;;0.85;0.60;;;;;;;4.97;100.00;99966.69;5076369;28;20472;-40
2024/02/25 03:48:08;;;;;;;0.95;0.55;;;;;;;5.01;100.00;99969.75;5076745;28;20028;-40
2024/02/25 03:50:34;;;;;;;1.58;0.60;;;;;;;5.01;100.00;99972.44;5076557;28;20024;-40
2024/02/25 03:52:59;;;;;;;0.60;0.60;;;;;;;5.02;100.00;99966.03;5076829;28;20031;-39
2024/02/25 03:55:25;;;;;;;1.70;0.70;;;;;;;5.01;100.00;99967.09;5077367;28;20051;-39
2024/02/25 03:57:51;;;;;;;1.23;0.70;;;;;;;5.00;100.00;99965.44;5076394;28;20020;-39
2024/02/25 04:00:17;;;;;;;1.30;0.90;;;;;;;5.03;100.00;99971.22;5074998;28;20086;-39
2024/02/25 04:02:45;;;;;;;0.80;0.70;;;;;;;5.03;100.00;99970.38;5077113;28;20055;-39
2024/02/25 04:05:11;;;;;;;1.02;0.60;;;;;;;5.02;100.00;99968.72;5077088;28;20029;-39
2024/02/25 04:07:37;;;;;;;0.68;0.63;;;;;;;4.96;100.00;99957.00;5076526;28;20363;-39
2024/02/25 04:10:02;;;;;;;1.37;0.90;;;;;;;5.02;100.00;99969.53;5075909;28;20032;-39
2024/02/25 04:12:28;;;;;;;1.00;0.85;;;;;;;5.04;100.00;99975.53;5074978;28;20271;-39
2024/02/25 04:14:53;;;;;;;2.73;0.70;;;;;;;5.04;100.00;99972.03;5076074;28;20025;-39
2024/02/25 04:17:19;;;;;;;0.90;0.60;;;;;;;4.87;100.00;99956.44;5076121;28;20064;-39
2024/02/25 04:19:44;;;;;;;0.60;0.60;;;;;;;4.96;100.00;99964.22;5076628;28;20103;-39
2024/02/25 04:22:09;;;;;;;1.70;0.67;;;;;;;4.87;100.00;99955.63;5075965;28;20035;-40
2024/02/25 04:24:35;;;;;;;0.90;0.70;;;;;;;4.98;100.00;99979.06;5076829;28;20035;-40
2024/02/25 04:27:00;;;;;;;1.43;0.70;;;;;;;4.96;100.00;99972.28;5075935;28;20024;-40
2024/02/25 04:29:25;;;;;;;1.77;0.80;;;;;;;5.00;100.00;99973.50;5076554;28;20024;-40
2024/02/25 04:31:51;;;;;;;1.23;0.93;;;;;;;4.96;100.00;99983.81;5075618;28;20112;-40
2024/02/25 04:34:16;;;;;;;1.67;0.83;;;;;;;4.98;100.00;99983.59;5075421;28;20052;-40
2024/02/25 04:36:41;;;;;;;0.77;0.70;;;;;;;4.95;100.00;99979.50;5075643;28;20033;-40
2024/02/25 04:39:09;;;;;;;1.47;1.37;;;;;;;4.95;100.00;99981.34;5076508;28;20028;-40
2024/02/25 04:41:34;;;;;;;1.15;0.80;;;;;;;4.92;100.00;99977.22;5075854;28;20427;-40
2024/02/25 04:44:00;;;;;;;0.98;0.80;;;;;;;4.91;100.00;99972.91;5075487;28;20028;-40
2024/02/25 04:46:25;;;;;;;1.90;0.73;;;;;;;4.95;100.00;99978.69;5076348;28;20033;-40
2024/02/25 04:48:50;;;;;;;0.70;0.70;;;;;;;4.94;100.00;99974.34;5075286;28;20028;-40
2024/02/25 04:51:16;;;;;;;1.30;0.90;;;;;;;4.93;100.00;99970.00;5075141;28;20388;-40
2024/02/25 04:53:41;;;;;;;1.85;0.90;;;;;;;4.93;100.00;99972.69;5075590;28;20520;-40
2024/02/25 04:56:07;;;;;;;1.37;0.80;;;;;;;4.88;100.00;99971.50;5075298;28;20048;-40
2024/02/25 04:58:33;;;;;;;1.33;1.00;;;;;;;4.90;100.00;99980.13;5075863;28;20098;-40
2024/02/25 05:00:58;;;;;;;2.67;1.00;;;;;;;4.87;100.00;99983.22;5075254;28;20051;-40
2024/02/25 05:03:24;;;;;;;0.93;0.80;;;;;;;4.93;100.00;99981.56;5075922;28;20056;-40
2024/02/25 05:05:50;;;;;;;1.70;1.17;;;;;;;4.86;100.00;99973.56;5074827;28;20086;-40
2024/02/25 05:08:15;;;;;;;1.10;1.00;;;;;;;4.90;100.00;99976.63;5075714;28;20372;-40
2024/02/25 05:10:41;;;;;;;1.50;1.15;;;;;;;4.82;100.00;99969.66;5075106;28;20055;-40
2024/02/25 05:13:07;;;;;;;1.35;1.17;;;;;;;4.93;100.00;99981.56;5074897;28;20024;-39
2024/02/25 05:15:33;;;;;;;1.40;1.08;;;;;;;4.91;100.00;99979.09;5075223;28;20024;-40
2024/02/25 05:17:59;;;;;;;2.20;1.50;;;;;;;4.89;100.00;99981.19;5074972;28;20257;-39
2024/02/25 05:20:25;;;;;;;2.00;1.30;;;;;;;4.89;100.00;99989.22;5075191;28;20035;-39
2024/02/25 05:22:51;;;;;;;1.52;1.30;;;;;;;4.89;100.00;99994.56;5074852;28;20036;-39
2024/02/25 05:25:17;;;;;;;2.70;1.52;;;;;;;4.87;100.00;99988.59;5075060;28;20028;-39
2024/02/25 05:27:42;;;;;;;2.10;1.67;;;;;;;4.88;100.00;99995.63;5074714;28;20368;-39
2024/02/25 05:30:08;;;;;;;2.25;1.70;;;;;;;4.81;100.00;99989.47;5074335;28;20163;-40
2024/02/25 05:32:35;;;;;;;1.60;1.35;;;;;;;4.90;100.00;99996.22;5074571;28;20024;-40
2024/02/25 05:35:02;;;;;;;2.10;1.75;;;;;;;4.88;100.00;99995.63;5075047;28;20032;-40
2024/02/25 05:37:27;;;;;;;2.10;1.60;;;;;;;4.87;100.00;99999.31;5074790;28;20037;-40
2024/02/25 05:39:53;;;;;;;2.10;1.90;;;;;;;4.87;100.00;99998.50;5075100;28;20372;-40
2024/02/25 05:42:18;;;;;;;2.07;1.83;;;;;;;4.87;100.00;100001.16;5074745;28;20028;-40
2024/02/25 05:44:44;;;;;;;1.80;1.60;;;;;;;4.88;100.00;99990.25;5074395;28;20021;-40
2024/02/25 05:47:09;;;;;;;1.93;1.60;;;;;;;4.87;100.00;100001.16;5074064;28;20035;-40
2024/02/25 05:49:37;;;;;;;2.53;1.80;;;;;;;4.87;100.00;99999.31;5074313;28;20255;-40
2024/02/25 05:52:03;;;;;;;1.60;1.40;;;;;;;4.84;100.00;99989.03;5074249;28;20028;-40
2024/02/25 05:54:28;;;;;;;1.55;1.45;;;;;;;4.95;100.00;100000.94;5074478;28;20043;-40
2024/02/25 05:56:54;;;;;;;1.97;1.70;;;;;;;4.95;100.00;100010.81;5074746;28;20411;-40
2024/02/25 05:59:19;;;;;;;3.08;2.03;;;;;;;4.86;100.00;100000.34;5073886;28;20028;-40
2024/02/25 06:01:48;;;;;;;2.57;1.80;;;;;;;4.95;100.00;100010.81;5074044;28;20028;-40
2024/02/25 06:04:15;;;;;;;2.45;1.67;;;;;;;4.90;100.00;100014.97;5073853;28;20032;-40
2024/02/25 06:06:42;;;;;;;2.10;1.88;;;;;;;4.82;100.00;100007.16;5073923;28;20024;-40
2024/02/25 06:09:10;;;;;;;3.28;1.80;;;;;;;4.86;100.00;100020.97;5073917;28;20028;-40
2024/02/25 06:11:36;;;;;;;1.77;1.60;;;;;;;4.95;100.00;100021.53;5074169;28;20027;-40
2024/02/25 06:14:01;;;;;;;2.70;1.83;;;;;;;4.88;100.00;100014.38;5074371;28;20024;-40
2024/02/25 06:16:32;;;;;;;3.57;2.30;;;;;;;4.95;100.00;100026.91;5074187;28;20020;-40
2024/02/25 06:18:58;;;;;;;3.13;1.80;;;;;;;4.96;100.00;100031.22;5073820;28;20028;-40
2024/02/25 06:21:23;;;;;;;1.88;1.77;;;;;;;4.96;100.00;100025.84;5074279;28;20032;-40
2024/02/25 06:23:48;;;;;;;1.98;1.77;;;;;;;4.98;100.00;100032.66;5073485;28;20033;-40
2024/02/25 06:26:14;;;;;;;2.27;1.80;;;;;;;4.98;100.00;100039.84;5073645;28;20029;-40
2024/02/25 06:28:39;;;;;;;2.00;1.77;;;;;;;4.98;100.00;100037.16;5074554;28;20033;-40
2024/02/25 06:31:05;;;;;;;2.80;2.10;;;;;;;5.00;100.00;100035.13;5073391;28;20629;-40
2024/02/25 06:33:30;;;;;;;4.32;1.92;;;;;;;4.99;100.00;100036.16;5073357;28;20499;-40
2024/02/25 06:35:55;;;;;;;3.03;2.13;;;;;;;4.98;100.00;100031.81;5073850;28;20089;-40
2024/02/25 06:38:21;;;;;;;5.50;2.30;;;;;;;5.00;100.00;100040.47;5073915;28;20025;-40
2024/02/25 06:40:46;;;;;;;4.50;2.20;;;;;;;5.01;100.00;100028.72;5073493;28;20035;-40
2024/02/25 06:43:12;;;;;;;5.30;2.40;;;;;;;5.00;100.00;100035.13;5073883;28;20074;-40
2024/02/25 06:45:38;;;;;;;2.85;2.30;;;;;;;5.00;100.00;100040.47;5073468;28;20085;-40
2024/02/25 06:48:03;;;;;;;2.80;1.90;;;;;;;4.95;100.00;100024.22;5073492;28;20025;-40
2024/02/25 06:50:29;;;;;;;2.83;2.30;;;;;;;5.03;100.00;100040.88;5073754;28;20079;-40
2024/02/25 06:52:54;;;;;;;4.13;2.40;;;;;;;5.00;100.00;100045.84;5073723;28;20029;-40
2024/02/25 06:55:20;;;;;;;2.70;2.23;;;;;;;4.90;100.00;100031.03;5073728;28;20090;-40
2024/02/25 06:57:45;;;;;;;3.33;2.40;;;;;;;4.98;100.00;100038.03;5073416;28;20103;-39
2024/02/25 07:00:11;;;;;;;4.80;2.40;;;;;;;4.99;100.00;100039.66;5073700;28;20099;-39
2024/02/25 07:02:36;;;;;;;3.97;2.42;;;;;;;4.98;100.00;100047.88;5073249;28;20430;-39
2024/02/25 07:05:03;;;;;;;2.92;2.50;;;;;;;4.88;100.00;100027.75;5074111;28;20028;-40
2024/02/25 07:07:28;;;;;;;5.13;2.75;;;;;;;4.96;100.00;100047.28;5073283;28;20182;-40
2024/02/25 07:09:57;;;;;;;3.25;2.60;;;;;;;4.99;100.00;100052.25;5073568;28;20518;-40
2024/02/25 07:12:22;;;;;;;4.32;2.60;;;;;;;5.00;100.00;100056.56;5073169;28;20132;-40
2024/02/25 07:14:48;;;;;;;6.90;2.67;;;;;;;4.99;100.00;100066.47;5073482;28;20027;-40
2024/02/25 07:17:13;;;;;;;3.40;2.80;;;;;;;5.02;100.00;100063.31;5075725;28;20465;-40
2024/02/25 07:19:46;;;;;;;3.90;2.70;;;;;;;5.04;100.00;100057.78;5077789;28;20035;-40
2024/02/25 07:22:11;;;;;;;3.13;2.35;;;;;;;5.03;100.00;100062.31;5077532;28;20032;-40
2024/02/25 07:24:37;;;;;;;3.85;2.42;;;;;;;5.05;100.00;100062.09;5077995;28;20068;-40
2024/02/25 07:27:03;;;;;;;4.03;2.72;;;;;;;5.02;100.00;100066.00;5077055;28;20129;-40
2024/02/25 07:29:29;;;;;;;4.15;2.25;;;;;;;5.03;100.00;100056.13;5076799;28;20033;-40
2024/02/25 07:31:54;;;;;;;4.03;2.60;;;;;;;5.05;100.00;100060.22;5076792;28;20032;-40
2024/02/25 07:34:20;;;;;;;2.70;2.50;;;;;;;4.99;100.00;100061.09;5077156;28;20500;-40
2024/02/25 07:36:45;;;;;;;3.92;2.50;;;;;;;5.11;100.00;100071.94;5077118;28;20449;-39
2024/02/25 07:39:11;;;;;;;4.38;2.70;;;;;;;5.11;100.00;100070.09;5077410;28;20055;-40
2024/02/25 07:41:36;;;;;;;2.45;2.08;;;;;;;5.12;100.00;100070.91;5076932;28;20099;-40
2024/02/25 07:44:02;;;;;;;5.10;3.08;;;;;;;5.09;100.00;100071.34;5077061;28;20031;-40
2024/02/25 07:46:29;;;;;;;2.40;2.20;;;;;;;5.04;100.00;100068.50;5076656;28;20587;-40
2024/02/25 07:48:54;;;;;;;3.72;2.40;;;;;;;5.07;100.00;100068.88;5076859;28;20271;-40
2024/02/25 07:51:20;;;;;;;2.83;2.22;;;;;;;5.12;100.00;100076.28;5076250;28;20064;-40
2024/02/25 07:53:46;;;;;;;3.92;2.55;;;;;;;5.14;100.00;100072.34;5076513;28;20035;-40
2024/02/25 07:56:23;;;;;;;3.00;2.25;;;;;;;5.22;100.00;100073.97;5076937;28;20052;-40
2024/02/25 07:58:48;;;;;;;3.50;2.38;;;;;;;5.15;100.00;100059.78;5077274;28;20025;-39
2024/02/25 08:01:14;;;;;;;2.72;2.50;;;;;;;5.30;100.00;100072.88;5076717;28;20044;-40
2024/02/25 08:03:39;;;;;;;4.60;2.95;;;;;;;5.37;100.00;100087.09;5076417;28;20032;-40
2024/02/25 08:06:05;;;;;;;4.40;3.20;;;;;;;5.36;100.00;100074.69;5076345;28;20082;-40
2024/02/25 08:08:30;;;;;;;3.70;3.03;;;;;;;5.42;100.00;100079.22;5076842;28;20047;-40
2024/02/25 08:10:56;;;;;;;3.05;2.75;;;;;;;5.44;100.00;100085.19;5076220;28;20024;-40
2024/02/25 08:13:21;;;;;;;4.73;2.67;;;;;;;5.45;100.00;100091.34;5076202;28;20028;-39
2024/02/25 08:15:46;;;;;;;3.33;2.50;;;;;;;5.51;100.00;100075.22;5076414;28;20480;-38
2024/02/25 08:18:12;;;;;;;4.47;2.80;;;;;;;5.53;100.00;100075.03;5076669;28;20031;-39
2024/02/25 08:20:37;;;;;;;4.53;2.53;;;;;;;5.56;100.00;100071.88;5076282;28;20028;-39
2024/02/25 08:23:03;;;;;;;3.97;2.87;;;;;;;5.71;100.00;100083.16;5076212;28;20069;-39
2024/02/25 08:25:28;;;;;;;2.85;2.55;;;;;;;5.75;100.00;100083.50;5076424;28;20032;-39
2024/02/25 08:27:54;;;;;;;3.97;2.57;;;;;;;5.81;100.00;100086.16;5075694;28;20031;-39
2024/02/25 08:30:20;;;;;;;3.53;2.47;;;;;;;5.86;100.00;100088.19;5076491;28;20032;-40
2024/02/25 08:32:45;;;;;;;4.57;2.33;;;;;;;5.84;100.00;100091.09;5075510;28;20464;-40
2024/02/25 08:35:11;;;;;;;2.97;2.08;;;;;;;5.84;100.00;100096.44;5075668;28;20021;-40
2024/02/25 08:37:37;;;;;;;3.03;2.15;;;;;;;5.83;100.00;100102.84;5075484;28;20124;-40
2024/02/25 08:40:03;;;;;;;;;;;;;;;5.92;100.00;100104.25;5076102;28;20488;-40
2024/02/25 08:42:28;;;;;;;2.80;2.30;;;;;;;5.83;100.00;100102.84;5075882;28;19918;-40
2024/02/25 08:44:54;;;;;;;3.40;2.20;;;;;;;5.87;100.00;100095.19;5076027;28;20029;-40
2024/02/25 08:47:19;;;;;;;4.43;2.33;;;;;;;5.85;100.00;100098.09;5075568;28;20418;-40
2024/02/25 08:49:44;;;;;;;2.57;2.37;;;;;;;5.92;100.00;100104.25;5076420;28;20568;-40
2024/02/25 08:52:10;;;;;;;3.93;2.37;;;;;;;5.90;100.00;100094.75;5075567;28;20025;-39
2024/02/25 08:54:38;;;;;;;3.53;2.20;;;;;;;6.02;100.00;100097.59;5075656;28;20049;-39
2024/02/25 08:57:05;;;;;;;3.60;2.33;;;;;;;5.97;100.00;100092.88;5075137;28;20266;-39
2024/02/25 08:59:31;;;;;;;3.33;2.40;;;;;;;6.00;100.00;100095.09;5075928;28;20047;-39
2024/02/25 09:01:56;;;;;;;3.13;2.40;;;;;;;6.13;100.00;100102.22;5074955;28;20029;-39
2024/02/25 09:04:27;;;;;;;4.30;2.40;;;;;;;6.15;100.00;100103.69;5076048;28;20051;-39
2024/02/25 09:06:55;;;;;;;3.45;2.67;;;;;;;6.25;100.00;100100.50;5075404;28;20381;-39
2024/02/25 09:09:20;;;;;;;3.33;2.30;;;;;;;6.27;100.00;100097.56;5075115;28;20025;-39
2024/02/25 09:11:46;;;;;;;4.70;2.80;;;;;;;6.26;100.00;100093.25;5075734;28;20039;-39
2024/02/25 09:14:11;;;;;;;3.97;2.80;;;;;;;6.26;100.00;100104.81;5075047;28;20107;-40
2024/02/25 09:16:38;;;;;;;4.90;2.90;;;;;;;6.26;100.00;100104.00;5075278;28;20025;-40
2024/02/25 09:19:03;;;;;;;6.43;2.95;;;;;;;6.16;100.00;100091.88;5075515;28;20271;-40
2024/02/25 09:21:30;;;;;;;5.97;2.70;;;;;;;6.25;100.00;100097.81;5075457;28;20032;-40
2024/02/25 09:23:55;;;;;;;4.05;3.03;;;;;;;6.33;100.00;100102.06;5074868;28;20032;-40
2024/02/25 09:26:22;;;;;;;3.60;2.97;;;;;;;6.41;100.00;100101.78;5074862;28;20045;-40
2024/02/25 09:28:47;;;;;;;4.28;3.33;;;;;;;6.46;100.00;100093.88;5075273;28;20277;-40
2024/02/25 09:31:19;;;;;;;5.22;3.55;;;;;;;6.44;100.00;100099.47;5074476;28;20137;-40
2024/02/25 09:33:46;;;;;;;7.07;3.10;;;;;;;6.41;100.00;100097.22;5074872;28;20036;-40
2024/02/25 09:36:11;;;;;;;3.22;2.67;;;;;;;6.50;100.00;100094.25;5074487;28;20383;-40
2024/02/25 09:38:37;;;;;;;3.63;3.20;;;;;;;6.45;100.00;100100.28;5074007;28;20028;-40
2024/02/25 09:41:03;;;;;;;5.17;3.43;;;;;;;6.48;100.00;100093.66;5074313;28;20040;-40
2024/02/25 09:43:28;;;;;;;5.28;3.17;;;;;;;6.45;100.00;100087.69;5075064;28;20025;-40
2024/02/25 09:45:56;;;;;;;5.57;2.78;;;;;;;6.52;100.00;100108.28;5074410;28;20038;-40
2024/02/25 09:48:25;;;;;;;3.33;2.95;;;;;;;6.48;100.00;100096.31;5074956;28;20035;-40
2024/02/25 09:50:52;;;;;;;3.72;2.78;;;;;;;6.42;100.00;100090.81;5073581;28;20024;-40
2024/02/25 09:53:20;;;;;;;4.00;2.95;;;;;;;6.50;100.00;100107.69;5075036;28;20025;-40
2024/02/25 09:55:47;;;;;;;5.65;2.45;;;;;;;6.47;100.00;100108.13;5073799;28;20412;-40
2024/02/25 09:58:13;;;;;;;3.78;2.17;;;;;;;6.41;100.00;100104.47;5074429;28;20028;-40
2024/02/25 10:00:38;;;;;;;4.20;2.63;;;;;;;6.47;100.00;100100.88;5074613;28;20024;-40
2024/02/25 10:03:10;;;;;;;5.35;3.40;;;;;;;6.43;100.00;100100.50;5073772;28;20036;-40
2024/02/25 10:05:36;;;;;;;3.58;2.60;;;;;;;6.41;100.00;100097.22;5074010;28;20028;-40
2024/02/25 10:08:07;;;;;;;;;;;;;;;6.52;100.00;100095.66;5074953;28;20020;-40
2024/02/25 10:10:33;;;;;;;3.05;2.45;;;;;;;6.47;100.00;100094.69;5074729;28;20019;-40
2024/02/25 10:13:03;;;;;;;3.20;2.10;;;;;;;6.49;100.00;100108.72;5074043;28;20058;-40
2024/02/25 10:15:30;;;;;;;8.40;4.10;;;;;;;6.49;100.00;100096.13;5073704;28;20072;-40
2024/02/25 10:17:55;;;;;;;6.25;2.30;;;;;;;6.65;100.00;100100.91;5073778;28;20033;-39
2024/02/25 10:20:21;;;;;;;2.90;2.03;;;;;;;6.72;100.00;100092.75;5074023;28;20039;-39
2024/02/25 10:22:46;;;;;;;2.33;2.10;;;;;;;6.85;100.00;100094.50;5074297;28;20028;-39
2024/02/25 10:25:11;;;;;;;4.03;2.10;;;;;;;6.82;100.00;100087.69;5073933;28;20050;-39
2024/02/25 10:27:37;;;;;;;4.07;1.90;;;;;;;6.86;100.00;100086.19;5073908;28;20032;-39
2024/02/25 10:30:08;;;;;;;4.25;2.03;;;;;;;6.89;100.00;100084.94;5074467;28;20255;-39
2024/02/25 10:32:40;;;;;;;3.72;1.80;;;;;;;7.01;100.00;100079.59;5073648;28;20033;-39
2024/02/25 10:35:09;;;;;;;4.22;2.10;;;;;;;7.01;100.00;100075.06;5073479;28;20029;-39
2024/02/25 10:37:34;;;;;;;3.20;1.77;;;;;;;7.09;100.00;100082.81;5072836;28;20078;-39
2024/02/25 10:40:05;;;;;;;2.60;1.67;;;;;;;7.17;100.00;100076.28;5073574;28;20021;-40
2024/02/25 10:42:32;;;;;;;4.07;2.65;;;;;;;7.35;100.00;100087.00;5073450;28;20103;-40
2024/02/25 10:44:59;;;;;;;2.75;1.70;;;;;;;7.55;100.00;100084.03;5073535;28;20032;-40
2024/02/25 10:47:28;;;;;;;3.40;1.50;;;;;;;7.74;100.00;100092.88;5073512;28;20028;-40
2024/02/25 10:49:55;;;;;;;3.85;1.40;;;;;;;7.73;100.00;100093.91;5073082;28;20468;-39
2024/02/25 10:52:22;;;;;;;2.20;1.40;;;;;;;7.66;100.00;100088.66;5073382;28;20032;-39
2024/02/25 10:54:49;;;;;;;3.05;1.38;;;;;;;7.62;100.00;100092.03;5073440;28;20053;-39
2024/02/25 10:57:17;;;;;;;5.40;1.60;;;;;;;7.68;100.00;100100.00;5073951;28;20056;-40
2024/02/25 10:59:45;;;;;;;4.00;1.52;;;;;;;7.71;100.00;100104.06;5073623;28;20024;-39
2024/02/25 11:02:11;;;;;;;3.03;1.33;;;;;;;7.60;100.00;100089.53;5073300;28;20454;-39
2024/02/25 11:04:37;;;;;;;2.38;1.45;;;;;;;7.69;100.00;100098.13;5074234;28;20420;-39
2024/02/25 11:07:07;;;;;;;2.30;1.15;;;;;;;7.68;100.00;100096.47;5073594;28;20067;-39
2024/02/25 11:09:32;;;;;;;1.80;1.00;;;;;;;7.62;100.00;100097.41;5074052;28;20127;-39
2024/02/25 11:12:14;;;;;;;3.20;1.10;;;;;;;7.74;100.00;100101.75;5073244;28;20103;-39
2024/02/25 11:14:47;;;;;;;2.67;1.00;;;;;;;7.93;100.00;100097.13;5073218;28;20115;-39
2024/02/25 11:17:17;;;;;;;2.35;1.10;;;;;;;7.99;100.00;100080.03;5073193;28;20056;-40
2024/02/25 11:19:55;;;;;;;2.25;1.17;;;;;;;7.96;100.00;100091.28;5073432;28;20051;-40
2024/02/25 11:22:57;;;;;;;3.67;1.70;;;;;;;7.96;100.00;100093.97;5073524;28;20067;-40
2024/02/25 11:25:28;;;;;;;3.08;1.60;;;;;;;7.90;100.00;100092.19;5072618;28;20037;-40